Time;durP1;ratioP1;P1;durP2;ratioP2;P2;SDS_P1;SDS_P2;PMS_P1;PMS_P2;Temp;Humidity;BMP_temperature;BMP_pressure;BME280_temperature;BME280_humidity;BME280_pressure;Samples;Min_cycle;Max_cycle;Signal;HPM_P1;HPM_P2
2022/08/10 00:01:24;;;;;;;1.10;1.10;;;;;;;;;;5065163;28;20228;-85
2022/08/10 00:03:51;;;;;;;1.10;1.10;;;;;;;;;;5065334;28;20210;-86
2022/08/10 00:06:19;;;;;;;1.80;1.70;;;;;;;;;;5065667;28;20225;-85
2022/08/10 00:08:46;;;;;;;1.50;1.38;;;;;;;;;;5065813;28;20221;-86
2022/08/10 00:11:14;;;;;;;1.80;1.70;;;;;;;;;;5064901;28;20232;-85
2022/08/10 00:13:46;;;;;;;1.33;1.20;;;;;;;;;;5065593;28;20288;-85
2022/08/10 00:16:13;;;;;;;1.33;1.23;;;;;;;;;;5064786;28;20190;-85
2022/08/10 00:18:41;;;;;;;1.27;1.17;;;;;;;;;;5064984;28;20236;-86
2022/08/10 00:21:09;;;;;;;1.38;1.38;;;;;;;;;;5065845;28;20225;-85
2022/08/10 00:23:39;;;;;;;1.15;1.15;;;;;;;;;;5066358;28;20205;-85
2022/08/10 00:26:07;;;;;;;0.98;0.98;;;;;;;;;;5066410;28;20212;-86
2022/08/10 00:28:35;;;;;;;1.38;1.27;;;;;;;;;;5063121;28;20661;-86
2022/08/10 00:31:03;;;;;;;1.30;1.20;;;;;;;;;;5062135;28;20209;-87
2022/08/10 00:33:31;;;;;;;1.17;1.13;;;;;;;;;;5060992;28;20240;-86
2022/08/10 00:35:59;;;;;;;1.40;1.30;;;;;;;;;;5062978;28;20688;-86
2022/08/10 00:38:26;;;;;;;1.25;1.15;;;;;;;;;;5061392;28;20236;-86
2022/08/10 00:40:54;;;;;;;1.45;1.35;;;;;;;;;;5061761;28;20209;-86
2022/08/10 00:43:21;;;;;;;1.05;1.05;;;;;;;;;;5061813;28;20237;-86
2022/08/10 00:45:49;;;;;;;1.42;1.33;;;;;;;;;;5062024;28;20624;-86
2022/08/10 00:48:17;;;;;;;1.60;1.50;;;;;;;;;;5062265;28;20258;-86
2022/08/10 00:50:45;;;;;;;1.30;1.30;;;;;;;;;;5061225;28;20246;-86
2022/08/10 00:53:12;;;;;;;1.55;1.10;;;;;;;;;;5061070;28;20696;-85
2022/08/10 00:55:40;;;;;;;1.00;1.00;;;;;;;;;;5061349;28;20265;-86
2022/08/10 00:58:09;;;;;;;0.77;0.77;;;;;;;;;;5062122;28;20237;-85
2022/08/10 01:00:36;;;;;;;2.08;1.88;;;;;;;;;;5061781;28;20592;-84
2022/08/10 01:03:04;;;;;;;1.20;1.10;;;;;;;;;;5064359;28;20659;-85
2022/08/10 01:05:33;;;;;;;1.08;0.98;;;;;;;;;;5064400;28;20271;-85
2022/08/10 01:08:24;;;;;;;1.23;1.13;;;;;;;;;;5063884;28;20728;-86
2022/08/10 01:10:59;;;;;;;1.15;1.05;;;;;;;;;;5064672;28;20214;-85
2022/08/10 01:13:33;;;;;;;1.50;1.40;;;;;;;;;;5063522;28;20190;-86
2022/08/10 01:16:08;;;;;;;1.10;1.10;;;;;;;;;;5063201;28;20238;-85
2022/08/10 01:18:45;;;;;;;1.58;1.27;;;;;;;;;;5063044;28;20220;-86
2022/08/10 01:22:01;;;;;;;0.93;0.93;;;;;;;;;;5062669;28;20257;-85
2022/08/10 01:25:16;;;;;;;0.93;0.93;;;;;;;;;;5053108;28;20202;-86
2022/08/10 01:27:54;;;;;;;1.50;1.40;;;;;;;;;;5063161;28;20221;-85
2022/08/10 01:30:24;;;;;;;0.95;0.95;;;;;;;;;;5064304;28;20220;-85
2022/08/10 01:32:57;;;;;;;1.48;1.30;;;;;;;;;;5062435;28;20218;-85
2022/08/10 01:35:31;;;;;;;1.52;1.42;;;;;;;;;;5063378;28;20250;-85
2022/08/10 01:38:05;;;;;;;1.42;1.17;;;;;;;;;;5063780;28;20182;-84
2022/08/10 01:40:37;;;;;;;1.20;1.20;;;;;;;;;;5063422;28;20189;-84
2022/08/10 01:43:08;;;;;;;1.20;1.20;;;;;;;;;;5062786;28;20256;-84
2022/08/10 01:45:41;;;;;;;1.88;1.77;;;;;;;;;;5062730;28;20217;-84
2022/08/10 01:48:30;;;;;;;1.35;1.27;;;;;;;;;;5063459;28;20245;-85
2022/08/10 01:51:09;;;;;;;1.40;1.30;;;;;;;;;;5062700;28;20182;-85
2022/08/10 01:53:42;;;;;;;1.30;1.20;;;;;;;;;;5063463;28;20185;-85
2022/08/10 01:56:13;;;;;;;1.92;1.83;;;;;;;;;;5062682;28;20618;-85
2022/08/10 01:58:41;;;;;;;1.15;1.15;;;;;;;;;;5062867;28;20345;-85
2022/08/10 02:01:13;;;;;;;1.60;1.50;;;;;;;;;;5062799;28;20302;-85
2022/08/10 02:03:42;;;;;;;1.85;1.20;;;;;;;;;;5064098;28;20185;-84
2022/08/10 02:06:10;;;;;;;1.42;1.30;;;;;;;;;;5064004;28;20651;-85
2022/08/10 02:08:38;;;;;;;1.05;1.05;;;;;;;;;;5064384;28;20222;-85
2022/08/10 02:11:06;;;;;;;1.02;1.02;;;;;;;;;;5063726;28;20225;-86
2022/08/10 02:13:34;;;;;;;1.30;1.13;;;;;;;;;;5075892;22;20249;-81
2022/08/10 02:16:04;;;;;;;1.65;1.45;;;;;;;;;;5036911;28;20634;-79
2022/08/10 02:18:34;;;;;;;1.27;1.17;;;;;;;;;;5036875;28;20205;-79
2022/08/10 02:21:04;;;;;;;1.50;1.40;;;;;;;;;;5036611;28;20320;-81
2022/08/10 02:23:36;;;;;;;1.42;1.33;;;;;;;;;;5036781;28;20254;-81
2022/08/10 02:26:04;;;;;;;1.23;1.23;;;;;;;;;;5036556;28;20218;-81
2022/08/10 02:28:34;;;;;;;1.42;1.33;;;;;;;;;;5035631;28;20218;-82
2022/08/10 02:31:05;;;;;;;1.40;1.30;;;;;;;;;;5036785;28;20627;-81
2022/08/10 02:33:36;;;;;;;1.10;1.10;;;;;;;;;;5036602;28;20250;-81
2022/08/10 02:36:07;;;;;;;1.05;1.05;;;;;;;;;;5036312;28;20222;-81
2022/08/10 02:38:38;;;;;;;1.30;1.20;;;;;;;;;;5036052;28;20642;-81
2022/08/10 02:41:11;;;;;;;1.20;1.10;;;;;;;;;;5036192;28;20557;-81
2022/08/10 02:43:47;;;;;;;1.10;1.10;;;;;;;;;;5036456;28;20253;-80
2022/08/10 02:46:25;;;;;;;1.40;1.30;;;;;;;;;;5036018;28;20301;-81
2022/08/10 02:49:00;;;;;;;1.45;1.35;;;;;;;;;;5036156;28;20258;-81
2022/08/10 02:51:38;;;;;;;1.30;1.20;;;;;;;;;;5036941;28;20620;-80
2022/08/10 02:54:09;;;;;;;1.23;1.13;;;;;;;;;;5036247;28;20246;-80
2022/08/10 02:56:39;;;;;;;1.98;1.45;;;;;;;;;;5039779;28;20218;-81
2022/08/10 02:59:12;;;;;;;1.50;1.40;;;;;;;;;;5040300;28;20222;-81
2022/08/10 03:01:45;;;;;;;1.38;1.10;;;;;;;;;;5039759;28;20218;-81
2022/08/10 03:04:19;;;;;;;1.48;1.05;;;;;;;;;;5040705;28;20762;-79
2022/08/10 03:06:54;;;;;;;1.35;1.25;;;;;;;;;;5040201;28;20221;-80
2022/08/10 03:09:23;;;;;;;1.45;1.35;;;;;;;;;;5040748;28;20205;-80
2022/08/10 03:11:52;;;;;;;1.20;1.20;;;;;;;;;;5040632;28;20209;-81
2022/08/10 03:14:20;;;;;;;1.58;1.48;;;;;;;;;;5040512;28;20258;-81
2022/08/10 03:16:48;;;;;;;1.33;1.23;;;;;;;;;;5040023;28;20202;-81
2022/08/10 03:19:19;;;;;;;1.35;1.25;;;;;;;;;;5040658;28;20230;-82
2022/08/10 03:21:48;;;;;;;1.30;1.20;;;;;;;;;;5040683;28;20191;-80
2022/08/10 03:24:19;;;;;;;1.42;1.33;;;;;;;;;;5040176;28;20218;-81
2022/08/10 03:26:46;;;;;;;1.27;1.27;;;;;;;;;;5039909;28;20198;-81
2022/08/10 03:29:14;;;;;;;1.60;1.50;;;;;;;;;;5040005;28;20260;-80
2022/08/10 03:31:42;;;;;;;1.50;1.40;;;;;;;;;;5041141;28;20268;-81
2022/08/10 03:34:09;;;;;;;1.45;1.30;;;;;;;;;;5040700;28;20745;-82
2022/08/10 03:36:38;;;;;;;1.30;1.17;;;;;;;;;;5040219;28;20195;-80
2022/08/10 03:39:06;;;;;;;1.17;1.15;;;;;;;;;;5040785;28;20198;-81
2022/08/10 03:41:39;;;;;;;1.13;1.05;;;;;;;;;;5039897;28;20686;-81
2022/08/10 03:44:08;;;;;;;1.38;1.27;;;;;;;;;;5040080;28;20226;-80
2022/08/10 03:46:41;;;;;;;1.30;1.25;;;;;;;;;;5039706;28;20633;-81
2022/08/10 03:49:10;;;;;;;1.20;1.15;;;;;;;;;;5039700;28;20210;-82
2022/08/10 03:51:39;;;;;;;1.10;1.10;;;;;;;;;;5039859;28;20289;-81
2022/08/10 03:54:07;;;;;;;1.38;1.27;;;;;;;;;;5039323;28;20257;-81
2022/08/10 03:56:37;;;;;;;1.13;1.10;;;;;;;;;;5039541;28;20208;-81
2022/08/10 03:59:06;;;;;;;1.55;1.45;;;;;;;;;;5039940;28;20289;-81
2022/08/10 04:01:34;;;;;;;1.40;1.30;;;;;;;;;;5039823;28;20289;-81
2022/08/10 04:04:01;;;;;;;1.60;1.50;;;;;;;;;;5039853;28;20222;-81
2022/08/10 04:06:29;;;;;;;1.40;1.30;;;;;;;;;;5038600;28;20237;-82
2022/08/10 04:08:59;;;;;;;1.05;1.05;;;;;;;;;;5039637;28;20313;-81
2022/08/10 04:11:26;;;;;;;1.60;1.50;;;;;;;;;;5039670;28;20550;-82
2022/08/10 04:13:54;;;;;;;1.42;1.33;;;;;;;;;;5039736;28;20241;-81
2022/08/10 04:16:21;;;;;;;1.40;1.30;;;;;;;;;;5038415;28;20238;-82
2022/08/10 04:18:49;;;;;;;1.00;1.00;;;;;;;;;;5038895;28;20267;-82
2022/08/10 04:21:21;;;;;;;1.00;1.00;;;;;;;;;;5038539;28;20207;-82
2022/08/10 04:23:50;;;;;;;1.80;1.70;;;;;;;;;;5039135;28;20718;-81
2022/08/10 04:26:19;;;;;;;1.08;1.08;;;;;;;;;;5038673;28;20553;-81
2022/08/10 04:28:48;;;;;;;1.50;1.40;;;;;;;;;;5038748;28;20234;-82
2022/08/10 04:31:17;;;;;;;1.42;1.33;;;;;;;;;;5038870;28;20270;-81
2022/08/10 04:33:49;;;;;;;1.30;1.30;;;;;;;;;;5038618;28;20607;-81
2022/08/10 04:36:18;;;;;;;1.30;1.20;;;;;;;;;;5036978;28;20244;-82
2022/08/10 04:38:46;;;;;;;1.42;1.33;;;;;;;;;;5036630;28;20682;-82
2022/08/10 04:41:13;;;;;;;1.60;1.50;;;;;;;;;;5036850;28;20226;-81
2022/08/10 04:43:43;;;;;;;1.10;1.10;;;;;;;;;;5031881;28;20683;-82
2022/08/10 04:46:10;;;;;;;1.23;1.13;;;;;;;;;;5017907;28;20506;-82
2022/08/10 04:48:38;;;;;;;1.00;1.00;;;;;;;;;;5018398;28;20226;-82
2022/08/10 04:51:06;;;;;;;1.42;1.30;;;;;;;;;;5017872;28;20254;-81
2022/08/10 04:53:34;;;;;;;1.25;1.15;;;;;;;;;;5018046;28;20230;-82
2022/08/10 04:56:01;;;;;;;1.40;1.33;;;;;;;;;;5018267;28;20231;-82
2022/08/10 04:58:30;;;;;;;1.67;1.58;;;;;;;;;;5018688;28;20550;-81
2022/08/10 05:00:58;;;;;;;1.17;1.08;;;;;;;;;;5018225;28;20199;-82
2022/08/10 05:03:26;;;;;;;1.45;1.35;;;;;;;;;;5018692;28;20219;-83
2022/08/10 05:05:53;;;;;;;1.08;1.08;;;;;;;;;;5018359;28;20290;-82
2022/08/10 05:08:21;;;;;;;1.70;1.60;;;;;;;;;;5017268;28;20578;-82
2022/08/10 05:10:49;;;;;;;1.13;1.13;;;;;;;;;;5018259;28;20253;-82
2022/08/10 05:13:16;;;;;;;1.15;1.13;;;;;;;;;;5018189;28;20289;-83
2022/08/10 05:15:44;;;;;;;1.25;1.23;;;;;;;;;;5017651;28;20219;-81
2022/08/10 05:18:13;;;;;;;1.33;1.15;;;;;;;;;;5017997;28;20203;-81
2022/08/10 05:20:41;;;;;;;1.30;1.30;;;;;;;;;;5018274;28;20621;-81
2022/08/10 05:23:08;;;;;;;1.40;1.30;;;;;;;;;;5018083;28;20266;-81
2022/08/10 05:25:36;;;;;;;1.40;1.30;;;;;;;;;;5018250;28;20621;-80
2022/08/10 05:28:04;;;;;;;1.23;1.15;;;;;;;;;;5017290;28;20233;-81
2022/08/10 05:30:31;;;;;;;1.05;1.05;;;;;;;;;;5017822;28;20344;-81
2022/08/10 05:32:59;;;;;;;2.55;1.20;;;;;;;;;;5017533;28;20223;-81
2022/08/10 05:35:29;;;;;;;1.30;1.30;;;;;;;;;;5017460;28;20210;-81
2022/08/10 05:37:57;;;;;;;2.50;1.40;;;;;;;;;;5017241;28;20211;-81
2022/08/10 05:40:25;;;;;;;1.30;1.20;;;;;;;;;;5017262;28;20245;-80
2022/08/10 05:42:53;;;;;;;1.63;1.52;;;;;;;;;;5017680;28;20254;-79
2022/08/10 05:45:24;;;;;;;1.30;1.20;;;;;;;;;;5037136;28;20202;-81
2022/08/10 05:47:52;;;;;;;1.40;1.30;;;;;;;;;;5037272;28;20603;-80
2022/08/10 05:50:21;;;;;;;1.15;1.10;;;;;;;;;;5036578;28;20280;-80
2022/08/10 05:52:51;;;;;;;1.17;1.17;;;;;;;;;;5037088;28;20198;-80
2022/08/10 05:55:18;;;;;;;1.15;1.15;;;;;;;;;;5037529;28;20202;-79
2022/08/10 05:57:47;;;;;;;1.65;1.55;;;;;;;;;;5037399;28;20198;-81
2022/08/10 06:00:18;;;;;;;1.33;1.30;;;;;;;;;;5037177;28;20236;-80
2022/08/10 06:02:49;;;;;;;1.27;1.23;;;;;;;;;;5037107;28;20540;-81
2022/08/10 06:05:19;;;;;;;1.60;1.50;;;;;;;;;;5037268;28;20210;-80
2022/08/10 06:07:53;;;;;;;0.90;0.90;;;;;;;;;;5036559;28;20190;-80
2022/08/10 06:10:21;;;;;;;1.25;1.25;;;;;;;;;;5037010;28;20205;-80
2022/08/10 06:14:59;;;;;;;1.83;1.55;;;;;;;;;;5037079;28;20208;-80
2022/08/10 06:15:38;;;;;;;1.00;1.00;;;;;;;;;;5017720;28;20203;-80
2022/08/10 06:18:06;;;;;;;1.10;1.10;;;;;;;;;;5017300;28;20199;-81
2022/08/10 06:20:34;;;;;;;1.05;1.05;;;;;;;;;;5018435;28;20203;-80
2022/08/10 06:23:04;;;;;;;1.48;1.38;;;;;;;;;;5017592;28;20665;-79
2022/08/10 06:25:33;;;;;;;1.23;1.23;;;;;;;;;;5017960;28;20672;-78
2022/08/10 06:28:01;;;;;;;3.78;1.30;;;;;;;;;;5016529;28;20655;-80
2022/08/10 06:30:30;;;;;;;1.38;1.27;;;;;;;;;;5018184;28;20230;-81
2022/08/10 06:32:59;;;;;;;2.90;1.58;;;;;;;;;;5020031;28;20257;-81
2022/08/10 06:35:30;;;;;;;1.52;1.42;;;;;;;;;;5020958;28;20230;-81
2022/08/10 06:38:00;;;;;;;1.75;1.52;;;;;;;;;;5021177;28;20191;-81
2022/08/10 06:40:35;;;;;;;1.20;1.20;;;;;;;;;;5020801;28;20222;-81
2022/08/10 06:43:06;;;;;;;1.50;1.40;;;;;;;;;;5021150;28;20565;-80
2022/08/10 06:45:39;;;;;;;1.90;1.70;;;;;;;;;;5040167;28;20554;-81
2022/08/10 06:48:14;;;;;;;2.45;1.50;;;;;;;;;;5039883;28;20221;-82
2022/08/10 06:50:46;;;;;;;1.70;1.50;;;;;;;;;;5039442;28;20714;-81
2022/08/10 06:53:17;;;;;;;1.45;1.35;;;;;;;;;;5040194;28;20242;-80
2022/08/10 06:55:52;;;;;;;1.42;1.33;;;;;;;;;;5040472;28;20222;-80
2022/08/10 06:58:20;;;;;;;2.05;1.20;;;;;;;;;;5039572;28;20214;-81
2022/08/10 07:00:48;;;;;;;1.60;1.50;;;;;;;;;;5039721;28;20291;-81
2022/08/10 07:03:19;;;;;;;1.60;1.50;;;;;;;;;;5039821;28;20249;-81
2022/08/10 07:05:48;;;;;;;1.80;1.70;;;;;;;;;;5039998;28;20218;-81
2022/08/10 07:08:17;;;;;;;1.85;1.75;;;;;;;;;;5039911;28;20202;-81
2022/08/10 07:10:48;;;;;;;1.30;1.25;;;;;;;;;;5039719;28;20233;-80
2022/08/10 07:13:18;;;;;;;1.48;1.38;;;;;;;;;;5039472;28;20236;-81
2022/08/10 07:15:48;;;;;;;1.58;1.48;;;;;;;;;;5039344;28;20678;-81
2022/08/10 07:18:16;;;;;;;2.03;1.30;;;;;;;;;;5040191;28;20212;-80
2022/08/10 07:20:45;;;;;;;1.35;1.25;;;;;;;;;;5039150;28;20229;-82
2022/08/10 07:23:14;;;;;;;1.42;1.33;;;;;;;;;;5039082;28;20785;-80
2022/08/10 07:25:42;;;;;;;1.88;1.77;;;;;;;;;;5038229;28;20202;-82
2022/08/10 07:28:11;;;;;;;1.63;1.50;;;;;;;;;;5039361;28;20238;-80
2022/08/10 07:30:40;;;;;;;1.27;1.27;;;;;;;;;;5039716;28;20548;-80
2022/08/10 07:33:09;;;;;;;1.80;1.70;;;;;;;;;;5039456;28;20258;-81
2022/08/10 07:35:37;;;;;;;1.58;1.50;;;;;;;;;;5039312;28;20241;-81
2022/08/10 07:38:06;;;;;;;1.58;1.48;;;;;;;;;;5038926;28;20244;-80
2022/08/10 07:40:34;;;;;;;1.52;1.42;;;;;;;;;;5038991;28;20229;-80
2022/08/10 07:43:03;;;;;;;1.65;1.55;;;;;;;;;;5037905;28;20218;-81
2022/08/10 07:45:34;;;;;;;1.50;1.40;;;;;;;;;;5038186;28;20206;-80
2022/08/10 07:48:04;;;;;;;1.60;1.50;;;;;;;;;;5037846;28;20230;-81
2022/08/10 07:50:32;;;;;;;1.40;1.30;;;;;;;;;;5039294;28;20186;-81
2022/08/10 07:53:03;;;;;;;1.92;1.80;;;;;;;;;;5037596;28;20258;-82
2022/08/10 07:55:31;;;;;;;1.42;1.33;;;;;;;;;;5038076;28;20218;-82
2022/08/10 07:58:00;;;;;;;1.23;1.23;;;;;;;;;;5038403;28;20203;-82
2022/08/10 08:00:29;;;;;;;1.50;1.40;;;;;;;;;;5037806;28;20236;-82
2022/08/10 08:03:00;;;;;;;1.70;1.60;;;;;;;;;;5037951;28;20229;-81
2022/08/10 08:05:29;;;;;;;1.38;1.27;;;;;;;;;;5038940;28;20549;-81
2022/08/10 08:07:58;;;;;;;1.30;1.20;;;;;;;;;;5039400;28;20266;-81
2022/08/10 08:10:27;;;;;;;1.40;1.38;;;;;;;;;;5038821;28;20222;-81
2022/08/10 08:15:31;;;;;;;1.80;1.70;;;;;;;;;;5033521;28;20221;-85
2022/08/10 08:18:02;;;;;;;2.00;1.90;;;;;;;;;;5033957;28;20290;-85
2022/08/10 08:20:30;;;;;;;1.30;1.20;;;;;;;;;;5035947;28;20290;-85
2022/08/10 08:22:58;;;;;;;1.35;1.30;;;;;;;;;;5035286;28;20203;-85
2022/08/10 08:25:26;;;;;;;2.05;1.60;;;;;;;;;;5035073;28;20248;-86
2022/08/10 08:27:55;;;;;;;1.77;1.67;;;;;;;;;;5034379;28;20202;-86
2022/08/10 08:30:24;;;;;;;2.63;1.80;;;;;;;;;;5035508;28;20213;-84
2022/08/10 08:32:51;;;;;;;1.42;1.42;;;;;;;;;;5035511;28;20229;-85
2022/08/10 08:35:21;;;;;;;3.28;1.52;;;;;;;;;;5035212;28;20313;-84
2022/08/10 08:37:51;;;;;;;1.73;1.63;;;;;;;;;;5036067;28;20269;-86
2022/08/10 08:40:23;;;;;;;1.83;1.73;;;;;;;;;;5034691;28;20270;-83
2022/08/10 08:43:22;;;;;;;1.20;1.20;;;;;;;;;;5034393;28;20237;-86
2022/08/10 08:46:17;;;;;;;1.85;1.48;;;;;;;;;;5034951;28;20218;-85
2022/08/10 08:49:24;;;;;;;1.70;1.60;;;;;;;;;;5034916;28;20226;-84
2022/08/10 08:52:07;;;;;;;1.80;1.70;;;;;;;;;;5033510;28;20206;-85
2022/08/10 08:54:45;;;;;;;1.60;1.50;;;;;;;;;;5034002;28;20228;-85
2022/08/10 08:57:28;;;;;;;1.45;1.40;;;;;;;;;;5035473;28;20273;-85
2022/08/10 09:00:05;;;;;;;1.98;1.88;;;;;;;;;;5034900;28;20253;-85
2022/08/10 09:02:50;;;;;;;1.33;1.30;;;;;;;;;;5037537;28;20556;-85
2022/08/10 09:05:31;;;;;;;1.77;1.67;;;;;;;;;;5036154;28;20727;-84
2022/08/10 09:08:27;;;;;;;1.70;1.60;;;;;;;;;;5035187;28;20214;-85
2022/08/10 09:11:00;;;;;;;2.00;1.52;;;;;;;;;;5036101;28;20198;-85
2022/08/10 09:13:34;;;;;;;2.72;1.70;;;;;;;;;;5036120;28;20603;-83
2022/08/10 09:16:20;;;;;;;1.73;1.60;;;;;;;;;;5035466;28;20253;-85
2022/08/10 09:18:53;;;;;;;1.92;1.83;;;;;;;;;;5034638;28;20214;-86
2022/08/10 09:21:29;;;;;;;2.15;1.92;;;;;;;;;;5035295;28;20630;-86
2022/08/10 09:24:05;;;;;;;1.80;1.70;;;;;;;;;;5034308;28;20254;-85
2022/08/10 09:26:49;;;;;;;2.13;2.03;;;;;;;;;;5034829;28;20305;-86
2022/08/10 09:29:24;;;;;;;1.80;1.70;;;;;;;;;;5033957;28;20230;-85
2022/08/10 09:32:03;;;;;;;1.77;1.67;;;;;;;;;;5034297;28;20627;-84
2022/08/10 09:34:41;;;;;;;1.75;1.65;;;;;;;;;;5033982;28;20218;-86
2022/08/10 09:37:15;;;;;;;2.03;1.92;;;;;;;;;;5033505;28;20706;-85
2022/08/10 09:39:52;;;;;;;1.40;1.30;;;;;;;;;;5033415;28;20241;-85
2022/08/10 09:42:29;;;;;;;1.67;1.58;;;;;;;;;;5033910;28;20221;-84
2022/08/10 09:45:02;;;;;;;2.72;2.30;;;;;;;;;;5034272;28;20868;-86
2022/08/10 09:47:43;;;;;;;2.30;2.20;;;;;;;;;;5033860;28;20541;-86
2022/08/10 09:50:20;;;;;;;2.33;2.13;;;;;;;;;;5033942;28;20835;-86
2022/08/10 09:53:00;;;;;;;2.22;2.13;;;;;;;;;;5033290;28;20210;-85
2022/08/10 09:55:48;;;;;;;2.00;1.90;;;;;;;;;;5033007;28;20217;-86
2022/08/10 09:58:33;;;;;;;1.77;1.67;;;;;;;;;;5032861;28;20224;-85
2022/08/10 10:01:09;;;;;;;1.98;1.83;;;;;;;;;;5032780;28;20252;-85
2022/08/10 10:03:45;;;;;;;2.30;2.15;;;;;;;;;;5033051;28;20214;-85
2022/08/10 10:06:17;;;;;;;2.50;2.35;;;;;;;;;;5032659;28;20202;-87
2022/08/10 10:08:56;;;;;;;1.90;1.80;;;;;;;;;;5032920;28;20264;-86
2022/08/10 10:11:29;;;;;;;1.63;1.55;;;;;;;;;;5032575;28;20186;-85
2022/08/10 10:14:05;;;;;;;1.70;1.60;;;;;;;;;;5032538;28;20295;-86
2022/08/10 10:17:06;;;;;;;1.85;1.75;;;;;;;;;;5032277;28;20265;-85
2022/08/10 10:19:55;;;;;;;2.47;1.70;;;;;;;;;;5032608;28;20263;-86
2022/08/10 10:22:45;;;;;;;2.20;1.90;;;;;;;;;;5032915;28;20237;-87
2022/08/10 10:25:22;;;;;;;2.25;2.15;;;;;;;;;;5033680;28;20222;-87
2022/08/10 10:28:00;;;;;;;1.92;1.83;;;;;;;;;;5032810;28;20209;-85
2022/08/10 10:30:36;;;;;;;1.58;1.48;;;;;;;;;;5032395;28;20637;-84
2022/08/10 10:33:15;;;;;;;1.90;1.80;;;;;;;;;;5031112;28;20690;-86
2022/08/10 10:35:51;;;;;;;2.00;1.80;;;;;;;;;;5032522;28;20214;-85
2022/08/10 10:38:21;;;;;;;1.63;1.52;;;;;;;;;;5032405;28;20194;-86
2022/08/10 10:40:55;;;;;;;1.70;1.60;;;;;;;;;;5032501;28;20178;-84
2022/08/10 10:43:39;;;;;;;1.90;1.80;;;;;;;;;;5032434;28;20217;-86
2022/08/10 10:46:19;;;;;;;1.77;1.67;;;;;;;;;;5032388;28;20297;-86
2022/08/10 10:48:58;;;;;;;2.05;1.95;;;;;;;;;;5032514;28;20217;-85
2022/08/10 10:51:29;;;;;;;2.30;1.90;;;;;;;;;;5032722;28;20803;-86
2022/08/10 10:54:05;;;;;;;2.10;1.92;;;;;;;;;;5032172;28;20261;-86
2022/08/10 10:56:39;;;;;;;1.40;1.30;;;;;;;;;;5032057;28;20222;-85
2022/08/10 10:59:21;;;;;;;1.70;1.60;;;;;;;;;;5032528;28;20212;-87
2022/08/10 11:01:58;;;;;;;1.70;1.60;;;;;;;;;;5033155;28;20187;-86
2022/08/10 11:04:34;;;;;;;1.80;1.70;;;;;;;;;;5033484;28;20640;-85
2022/08/10 11:07:10;;;;;;;1.90;1.80;;;;;;;;;;5032939;28;20218;-86
2022/08/10 11:09:40;;;;;;;1.70;1.60;;;;;;;;;;5032045;28;20190;-86
2022/08/10 11:12:18;;;;;;;2.15;2.05;;;;;;;;;;5032306;28;20218;-85
2022/08/10 11:14:56;;;;;;;2.10;2.00;;;;;;;;;;5032498;28;20313;-86
2022/08/10 11:17:30;;;;;;;1.52;1.42;;;;;;;;;;5035390;28;20205;-86
2022/08/10 11:20:10;;;;;;;1.63;1.52;;;;;;;;;;5035684;28;20174;-86
2022/08/10 11:22:45;;;;;;;1.52;1.42;;;;;;;;;;5036575;28;20624;-85
2022/08/10 11:25:15;;;;;;;1.60;1.50;;;;;;;;;;5035801;28;20256;-87
2022/08/10 11:27:49;;;;;;;1.55;1.45;;;;;;;;;;5035726;28;20240;-87
2022/08/10 11:30:23;;;;;;;1.25;1.25;;;;;;;;;;5035511;28;20621;-85
2022/08/10 11:33:07;;;;;;;2.25;1.63;;;;;;;;;;5035495;28;20201;-88
2022/08/10 11:35:44;;;;;;;2.95;2.38;;;;;;;;;;5035500;28;20573;-87
2022/08/10 11:38:21;;;;;;;1.88;1.77;;;;;;;;;;5036103;28;20658;-85
2022/08/10 11:40:59;;;;;;;1.95;1.80;;;;;;;;;;5035106;28;20232;-86
2022/08/10 11:43:28;;;;;;;1.20;1.20;;;;;;;;;;5035176;28;20295;-86
2022/08/10 11:46:03;;;;;;;1.63;1.52;;;;;;;;;;5034933;28;20252;-86
2022/08/10 11:48:38;;;;;;;1.90;1.80;;;;;;;;;;5035025;28;20259;-86
2022/08/10 11:51:11;;;;;;;1.58;1.48;;;;;;;;;;5035393;28;20616;-85
2022/08/10 11:53:49;;;;;;;2.20;2.10;;;;;;;;;;5034613;28;20307;-86
2022/08/10 11:56:25;;;;;;;2.05;1.95;;;;;;;;;;5035235;28;20186;-87
2022/08/10 12:01:39;;;;;;;1.90;1.80;;;;;;;;;;5034605;28;20200;-86
2022/08/10 12:04:08;;;;;;;1.60;1.50;;;;;;;;;;5034778;28;20241;-89
2022/08/10 12:06:36;;;;;;;1.55;1.45;;;;;;;;;;5034755;28;20237;-86
2022/08/10 12:09:06;;;;;;;2.45;2.15;;;;;;;;;;5034649;28;20236;-86
2022/08/10 12:11:35;;;;;;;1.70;1.60;;;;;;;;;;5034986;28;20216;-86
2022/08/10 12:14:07;;;;;;;1.70;1.60;;;;;;;;;;5034456;28;20843;-86
2022/08/10 12:16:40;;;;;;;2.30;1.90;;;;;;;;;;5034884;28;20217;-86
2022/08/10 12:19:14;;;;;;;1.42;1.33;;;;;;;;;;5034880;28;20245;-85
2022/08/10 12:21:45;;;;;;;1.75;1.65;;;;;;;;;;5034097;28;20192;-85
2022/08/10 12:24:22;;;;;;;1.70;1.60;;;;;;;;;;5034105;28;20218;-86
2022/08/10 12:26:57;;;;;;;1.73;1.63;;;;;;;;;;5034362;28;20193;-85
2022/08/10 12:29:31;;;;;;;1.65;1.55;;;;;;;;;;5033513;28;20216;-86
2022/08/10 12:32:06;;;;;;;2.20;2.10;;;;;;;;;;5034550;28;20202;-86
2022/08/10 12:34:40;;;;;;;1.88;1.77;;;;;;;;;;5033923;28;20229;-87
2022/08/10 12:37:17;;;;;;;2.00;1.80;;;;;;;;;;5034666;28;20313;-87
2022/08/10 12:40:01;;;;;;;1.63;1.52;;;;;;;;;;5033938;28;20222;-87
2022/08/10 12:42:34;;;;;;;1.63;1.52;;;;;;;;;;5034024;28;20186;-86
2022/08/10 12:45:05;;;;;;;1.35;1.35;;;;;;;;;;5033688;28;20249;-89
2022/08/10 12:47:44;;;;;;;1.60;1.50;;;;;;;;;;5033807;28;20268;-87
2022/08/10 12:50:19;;;;;;;1.42;1.33;;;;;;;;;;5034083;28;20654;-87
2022/08/10 12:53:01;;;;;;;1.30;1.30;;;;;;;;;;5033989;28;20192;-87
2022/08/10 12:55:29;;;;;;;1.92;1.83;;;;;;;;;;5034015;28;20294;-86
2022/08/10 12:57:58;;;;;;;1.98;1.88;;;;;;;;;;5033577;28;20233;-88
2022/08/10 13:00:32;;;;;;;3.35;2.55;;;;;;;;;;5033621;28;20241;-87
2022/08/10 13:03:02;;;;;;;1.70;1.60;;;;;;;;;;5033552;28;20186;-88
2022/08/10 13:05:31;;;;;;;2.67;1.83;;;;;;;;;;5033948;28;20232;-87
2022/08/10 13:10:52;;;;;;;1.90;1.80;;;;;;;;;;5033475;28;20182;-86
2022/08/10 13:13:25;;;;;;;1.67;1.58;;;;;;;;;;5033277;28;20297;-87
2022/08/10 13:15:56;;;;;;;1.70;1.60;;;;;;;;;;5033361;28;20764;-86
2022/08/10 13:18:29;;;;;;;1.40;1.30;;;;;;;;;;5034001;28;20224;-86
2022/08/10 13:21:03;;;;;;;1.45;1.38;;;;;;;;;;5033469;28;20210;-87
2022/08/10 13:23:34;;;;;;;1.52;1.42;;;;;;;;;;5033341;28;20272;-87
2022/08/10 13:26:03;;;;;;;1.58;1.58;;;;;;;;;;5033326;28;20198;-88
2022/08/10 13:28:39;;;;;;;1.60;1.50;;;;;;;;;;5033851;28;20239;-85
2022/08/10 13:31:13;;;;;;;1.58;1.48;;;;;;;;;;5033900;28;20182;-85
2022/08/10 13:33:51;;;;;;;2.13;2.03;;;;;;;;;;5033334;28;20308;-87
2022/08/10 13:36:28;;;;;;;1.70;1.60;;;;;;;;;;5033138;28;20690;-86
2022/08/10 13:38:58;;;;;;;1.85;1.70;;;;;;;;;;5033591;28;20213;-88
2022/08/10 13:41:28;;;;;;;4.70;1.73;;;;;;;;;;5032991;28;20230;-87
2022/08/10 13:43:59;;;;;;;1.70;1.60;;;;;;;;;;5033051;28;20605;-85
2022/08/10 13:46:27;;;;;;;1.90;1.80;;;;;;;;;;5033224;28;20233;-87
2022/08/10 13:48:59;;;;;;;1.63;1.52;;;;;;;;;;5033241;28;20204;-85
2022/08/10 13:51:30;;;;;;;1.70;1.60;;;;;;;;;;5032976;28;20240;-87
2022/08/10 13:53:59;;;;;;;1.55;1.45;;;;;;;;;;5032999;28;20690;-89
2022/08/10 13:56:29;;;;;;;1.58;1.48;;;;;;;;;;5032729;28;20313;-87
2022/08/10 13:58:57;;;;;;;2.28;1.33;;;;;;;;;;5033441;28;20230;-87
2022/08/10 14:01:30;;;;;;;1.50;1.40;;;;;;;;;;5033026;28;20583;-85
2022/08/10 14:04:01;;;;;;;1.60;1.50;;;;;;;;;;5033088;28;20226;-85
2022/08/10 14:06:31;;;;;;;1.77;1.67;;;;;;;;;;5033646;28;20222;-86
2022/08/10 14:09:03;;;;;;;1.85;1.75;;;;;;;;;;5033159;28;20234;-86
2022/08/10 14:11:31;;;;;;;1.92;1.83;;;;;;;;;;5033310;28;20606;-85
2022/08/10 14:14:02;;;;;;;1.20;1.20;;;;;;;;;;5032535;28;20257;-86
2022/08/10 14:16:30;;;;;;;1.60;1.50;;;;;;;;;;5032435;28;20309;-85
2022/08/10 14:19:05;;;;;;;1.10;1.10;;;;;;;;;;5032561;28;20698;-86
2022/08/10 14:21:38;;;;;;;1.40;1.30;;;;;;;;;;5032447;28;20224;-86
2022/08/10 14:24:13;;;;;;;1.25;1.25;;;;;;;;;;5033164;28;20257;-86
2022/08/10 14:26:43;;;;;;;1.75;1.60;;;;;;;;;;5031995;28;20659;-86
2022/08/10 14:29:11;;;;;;;2.13;1.95;;;;;;;;;;5032494;28;20245;-84
2022/08/10 14:31:42;;;;;;;1.02;1.02;;;;;;;;;;5032837;28;20589;-84
2022/08/10 14:34:13;;;;;;;1.50;1.40;;;;;;;;;;5032616;28;20690;-86
2022/08/10 14:36:44;;;;;;;1.20;1.20;;;;;;;;;;5032065;28;20198;-85
2022/08/10 14:39:19;;;;;;;1.30;1.20;;;;;;;;;;5032498;28;20221;-85
2022/08/10 14:41:47;;;;;;;1.20;1.20;;;;;;;;;;5028090;28;20186;-85
2022/08/10 14:44:17;;;;;;;1.15;1.15;;;;;;;;;;5032313;28;20264;-85
2022/08/10 14:46:48;;;;;;;1.60;1.50;;;;;;;;;;5032227;28;20202;-85
2022/08/10 14:49:18;;;;;;;1.63;1.52;;;;;;;;;;5032938;28;20271;-84
2022/08/10 14:51:46;;;;;;;1.35;1.30;;;;;;;;;;5034839;28;20205;-86
2022/08/10 14:54:16;;;;;;;1.50;1.48;;;;;;;;;;5036971;28;20658;-86
2022/08/10 14:56:45;;;;;;;1.10;1.10;;;;;;;;;;5036116;28;20600;-85
2022/08/10 14:59:15;;;;;;;1.10;1.10;;;;;;;;;;5035896;28;20202;-85
2022/08/10 15:01:45;;;;;;;1.38;1.27;;;;;;;;;;5035880;28;20198;-84
2022/08/10 15:04:16;;;;;;;1.23;1.10;;;;;;;;;;5035786;28;20218;-84
2022/08/10 15:06:53;;;;;;;1.17;1.17;;;;;;;;;;5035778;28;20210;-86
2022/08/10 15:09:22;;;;;;;1.60;1.50;;;;;;;;;;5035597;28;20206;-85
2022/08/10 15:11:52;;;;;;;1.02;1.02;;;;;;;;;;5036245;28;20232;-85
2022/08/10 15:14:19;;;;;;;1.17;1.17;;;;;;;;;;5035239;28;20258;-86
2022/08/10 15:16:47;;;;;;;1.98;1.50;;;;;;;;;;5035579;28;20218;-85
2022/08/10 15:19:16;;;;;;;1.02;1.02;;;;;;;;;;5035675;28;20289;-86
2022/08/10 15:21:45;;;;;;;0.70;0.70;;;;;;;;;;5035267;28;20622;-84